Cleveland, Ohio
Traffic Map
Current Weather Conditions
Cleveland, Ohio
Clear
Clear
76°
Feels Like: 76°
Wind Chill: 76° Ceiling: Unl
Heat Index: 76° Visibility: 10mi
Dew Point: 59° Wind: 8mph
Humidity: 56% Direction: 150° (SSE)
Pressure: 29.91in Gusts: 0mph
Raw Report DataKBKL 280653Z 15007KT 10SM CLR 24/15 A2991 RMK AO2 SLP122 T02440150
Traffic Incident Summary
Active as of:
Severity:
Category:
InformationThere was an issue retrieving the traffic information for this location. Please try a different location or try again shortly.
Advertisements
Track Severe Weather on mobile